Goforth, Kentucky
Current Conditions -  °F | °C
As of 3:53 AM on Sunday 21 Dec 2014 (Local Time) from KLUK Reporting Station
Haze Haze  
Wind Chill: 25°   Ceiling: Unl
Heat Index: 25°   Visibility: 5mi
Dew Point: 24°   Wind: 3mph
Humidity: 96%   Direction: 40°NE
Pressure: 30.33"   Gusts: NA
Location:  38.6506°N, 84.351°W
Report Text: KLUK 210853Z AUTO 04003KT 5SM BR CLR M04/M04 A3033 RMK AO2 SLP275 T10391044 53002
Loading
Personal Weather Stations






























Interactive Weather Map New forecast layout! Learn more

10-Day Weather Forecast

Advertisements
Track Severe Weather on mobile